Time;durP1;ratioP1;P1;durP2;ratioP2;P2;SDS_P1;SDS_P2;PMS_P1;PMS_P2;Temp;Humidity;BMP_temperature;BMP_pressure;BME280_temperature;BME280_humidity;BME280_pressure;Samples;Min_cycle;Max_cycle;Signal;HPM_P1;HPM_P2
2021/08/30 00:01:44;;;;;;;;;0.00;0.00;;;;;25.13;42.43;101240.22;5032779;28;45557;-64
2021/08/30 00:04:09;;;;;;;;;0.00;0.00;;;;;25.14;42.76;101239.28;5034161;28;45429;-64
2021/08/30 00:06:35;;;;;;;;;0.00;0.00;;;;;25.13;42.84;101230.22;5033701;28;46403;-64
2021/08/30 00:09:01;;;;;;;;;0.00;0.00;;;;;25.15;42.59;101241.06;5034024;28;45571;-64
2021/08/30 00:11:27;;;;;;;;;0.00;0.00;;;;;25.14;42.39;101237.44;5033876;28;45489;-64
2021/08/30 00:13:52;;;;;;;;;0.00;0.00;;;;;25.14;42.71;101239.28;5034101;28;45619;-64
2021/08/30 00:16:17;;;;;;;;;0.00;0.00;;;;;25.13;42.54;101238.41;5032958;28;45925;-64
2021/08/30 00:18:44;;;;;;;;;0.00;0.00;;;;;25.12;42.60;101233.88;5033928;28;45472;-64
2021/08/30 00:21:10;;;;;;;;;0.00;0.00;;;;;25.12;42.42;101236.59;5033859;28;45404;-64
2021/08/30 00:23:35;;;;;;;;;0.00;0.00;;;;;25.12;42.65;101227.56;5034026;28;45437;-65
2021/08/30 00:26:04;;;;;;;;;0.00;0.00;;;;;25.12;42.65;101235.72;5033668;28;46021;-65
2021/08/30 00:28:29;;;;;;;;;0.00;0.00;;;;;25.12;42.41;101233.00;5033447;28;45472;-65
2021/08/30 00:30:55;;;;;;;;;0.00;0.00;;;;;25.12;42.42;101233.88;5033885;28;45491;-65
2021/08/30 00:33:20;;;;;;;;;0.00;0.00;;;;;25.12;42.62;101227.56;5036286;28;45525;-64
2021/08/30 00:35:45;;;;;;;;;0.00;0.00;;;;;25.13;42.70;101234.78;5053617;28;45836;-65
2021/08/30 00:38:11;;;;;;;;;0.00;0.00;;;;;25.13;42.48;101229.34;5053755;28;45541;-65
2021/08/30 00:40:40;;;;;;;;;0.00;0.00;;;;;25.12;42.52;101224.84;5053824;28;45725;-65
2021/08/30 00:43:07;;;;;;;;;0.00;0.00;;;;;25.10;42.70;101218.56;5054128;28;45426;-65
2021/08/30 00:45:32;;;;;;;;;0.00;0.00;;;;;25.10;42.46;101224.00;5053802;28;46392;-65
2021/08/30 00:47:58;;;;;;;;;0.00;0.00;;;;;25.11;42.41;101220.34;5053999;28;45413;-65
2021/08/30 00:50:24;;;;;;;;;0.00;0.00;;;;;25.10;42.40;101215.84;5053903;28;45793;-65
2021/08/30 00:52:51;;;;;;;;;0.00;0.00;;;;;25.10;42.58;101218.56;5056462;28;45395;-64
2021/08/30 00:55:17;;;;;;;;;0.00;0.00;;;;;25.09;42.41;101214.97;5057125;28;45443;-64
2021/08/30 00:57:42;;;;;;;;;0.00;0.00;;;;;25.09;42.49;101217.69;5056803;28;45523;-64
2021/08/30 01:00:11;;;;;;;;;0.00;0.00;;;;;25.10;42.35;101211.28;5057876;28;45468;-65
2021/08/30 01:02:37;;;;;;;;;0.00;0.00;;;;;25.10;42.76;101213.13;5057714;28;45537;-64
2021/08/30 01:05:03;;;;;;;;;0.00;0.00;;;;;25.09;42.50;101217.69;5057084;28;45482;-64
2021/08/30 01:07:47;;;;;;;;;0.00;0.00;;;;;25.11;42.58;101214.91;5056952;28;45476;-64
2021/08/30 01:10:19;;;;;;;;;0.00;0.00;;;;;25.10;42.50;101214.00;5057089;28;45374;-64
2021/08/30 01:12:58;;;;;;;;;0.00;0.00;;;;;25.08;42.60;101220.47;5056665;28;44841;-65
2021/08/30 01:15:29;;;;;;;;;0.00;0.00;;;;;25.09;42.76;101205.91;5056726;28;45475;-64
2021/08/30 01:17:57;;;;;;;;;0.00;0.00;;;;;25.09;42.59;101214.09;5056348;28;45323;-64
2021/08/30 01:20:47;;;;;;;;;0.00;0.00;;;;;25.07;42.66;101207.81;5056677;28;45363;-64
2021/08/30 01:23:14;;;;;;;;;0.00;0.00;;;;;25.08;42.71;101206.84;5056585;28;45878;-64
2021/08/30 01:25:39;;;;;;;;;0.00;0.00;;;;;25.08;42.64;101204.13;5038176;28;46425;-64
2021/08/30 01:28:06;;;;;;;;;0.00;0.00;;;;;25.07;42.63;101208.69;5056679;28;45344;-64
2021/08/30 01:30:36;;;;;;;;;0.00;0.00;;;;;25.04;42.69;101203.34;5038205;28;45433;-64
2021/08/30 01:33:04;;;;;;;;;0.00;0.00;;;;;25.06;42.73;101195.13;5056234;28;45538;-64
2021/08/30 01:35:38;;;;;;;;;0.00;0.00;;;;;25.05;42.67;101205.16;5054283;28;47238;-64
2021/08/30 01:38:09;;;;;;;;;0.00;0.00;;;;;25.04;42.55;101206.06;5038075;28;45335;-64
2021/08/30 01:40:36;;;;;;;;;0.00;0.00;;;;;25.03;42.59;101196.16;5056243;28;45455;-64
2021/08/30 01:43:04;;;;;;;;;0.00;0.00;;;;;25.03;42.67;101196.16;5056239;28;45453;-64
2021/08/30 01:45:32;;;;;;;;;0.00;0.00;;;;;25.04;42.72;101192.47;5055936;28;45405;-64
2021/08/30 01:48:01;;;;;;;;;0.00;0.00;;;;;25.03;42.60;101196.16;5056337;28;45401;-64
2021/08/30 01:50:28;;;;;;;;;0.00;0.00;;;;;25.04;42.66;101188.88;5056177;28;45401;-64
2021/08/30 01:52:56;;;;;;;;;0.00;0.00;;;;;25.05;42.45;101190.66;5056254;28;45386;-64
2021/08/30 02:00:43;;;;;;;;;0.00;0.00;;;;;25.05;42.66;101193.38;5055777;28;45386;-64
2021/08/30 02:03:29;;;;;;;;;0.00;0.00;;;;;25.05;42.94;101187.94;5041090;28;44871;-64
2021/08/30 02:05:57;;;;;;;;;0.00;0.00;;;;;25.04;42.71;101186.16;5034293;28;47186;-64
2021/08/30 02:08:25;;;;;;;;;0.00;0.00;;;;;25.06;42.57;101195.13;5035575;28;45729;-64
2021/08/30 02:10:53;;;;;;;;;0.00;0.00;;;;;25.05;42.51;101193.38;5035632;28;45444;-64
2021/08/30 02:13:20;;;;;;;;;0.00;0.00;;;;;25.05;42.36;101194.25;5035882;28;45487;-64
2021/08/30 02:15:46;;;;;;;;;0.00;0.00;;;;;25.06;42.46;101195.13;5035514;28;45411;-63
2021/08/30 02:18:16;;;;;;;;;0.00;0.00;;;;;25.06;42.65;101192.41;5034519;28;45454;-64
2021/08/30 02:21:06;;;;;;;;;0.00;0.00;;;;;25.05;42.58;101196.09;5035892;28;45437;-64
2021/08/30 02:23:37;;;;;;;;;0.00;0.00;;;;;25.05;42.75;101199.69;4973743;28;45608;-63
2021/08/30 02:26:11;;;;;;;;;0.00;0.00;;;;;25.06;42.67;101195.13;4973168;28;48066;-64
2021/08/30 02:28:38;;;;;;;;;0.00;0.00;;;;;25.07;42.72;101195.09;4973778;28;45480;-64
2021/08/30 02:31:03;;;;;;;;;0.00;0.00;;;;;25.06;42.46;101189.69;4973856;28;46191;-64
2021/08/30 02:33:30;;;;;;;;;0.00;0.00;;;;;25.05;42.57;101194.25;4974186;28;45500;-64
2021/08/30 02:36:03;;;;;;;;;0.00;0.00;;;;;25.06;42.65;101187.84;4972038;28;45543;-64
2021/08/30 02:38:29;;;;;;;;;0.00;0.00;;;;;25.06;42.67;101185.13;4973102;28;45438;-64
2021/08/30 02:40:56;;;;;;;;;0.00;0.00;;;;;25.06;42.67;101185.13;4973675;28;45490;-64
2021/08/30 02:43:21;;;;;;;;;0.00;0.00;;;;;25.05;42.78;101183.38;4973718;28;45387;-64
2021/08/30 02:45:47;;;;;;;;;0.00;0.00;;;;;25.07;42.67;101188.75;4972858;28;46212;-64
2021/08/30 02:48:13;;;;;;;;;0.00;0.00;;;;;25.06;42.61;101184.25;4973009;28;45394;-65
2021/08/30 02:50:39;;;;;;;;;0.00;0.00;;;;;25.07;42.52;101186.03;4973092;28;45416;-65
2021/08/30 02:53:05;;;;;;;;;0.00;0.00;;;;;25.06;42.58;101185.13;4973249;28;45476;-65
2021/08/30 02:55:30;;;;;;;;;0.00;0.00;;;;;25.05;42.47;101185.22;4972998;28;45790;-65
2021/08/30 02:57:58;;;;;;;;;0.00;0.00;;;;;25.06;42.53;101186.97;4972801;28;45482;-65
2021/08/30 03:00:24;;;;;;;;;0.33;0.00;;;;;25.05;42.74;101177.06;4997299;28;45625;-65
2021/08/30 03:02:50;;;;;;;;;0.00;0.00;;;;;25.02;42.74;101178.03;5034790;28;45520;-64
2021/08/30 03:05:16;;;;;;;;;0.00;0.00;;;;;25.05;42.64;101179.78;5034969;28;46163;-65
2021/08/30 03:07:44;;;;;;;;;0.00;0.00;;;;;25.03;42.76;101176.22;5033080;28;45572;-65
2021/08/30 03:10:09;;;;;;;;;0.00;0.00;;;;;25.04;42.58;101175.25;5034615;28;45525;-63
2021/08/30 03:12:46;;;;;;;;;0.00;0.00;;;;;25.04;42.58;101183.44;5034440;28;45343;-64
2021/08/30 03:15:16;;;;;;;;;0.00;0.00;;;;;25.01;42.50;101167.25;5033999;28;46134;-64
2021/08/30 03:17:44;;;;;;;;;0.00;0.00;;;;;25.02;42.75;101182.59;5034389;28;45435;-64
2021/08/30 03:20:17;;;;;;;;;0.00;0.00;;;;;24.99;42.60;101178.19;5034453;28;45424;-64
2021/08/30 03:22:44;;;;;;;;;0.00;0.00;;;;;24.99;42.35;101183.63;5034606;28;45722;-64
2021/08/30 03:25:14;;;;;;;;;0.00;0.00;;;;;25.01;42.61;101180.84;5033975;28;45445;-64
2021/08/30 03:27:42;;;;;;;;;0.00;0.00;;;;;24.99;42.51;101178.19;5033950;28;45472;-64
2021/08/30 03:30:10;;;;;;;;;0.00;0.00;;;;;24.98;42.82;101176.38;5032973;28;44948;-64
2021/08/30 03:32:38;;;;;;;;;0.00;0.00;;;;;24.98;42.62;101178.22;5034215;28;45597;-64
2021/08/30 03:35:04;;;;;;;;;0.00;0.00;;;;;24.98;42.89;101179.09;5032860;28;45390;-64
2021/08/30 03:37:29;;;;;;;;;0.00;0.00;;;;;24.98;42.60;101175.50;5033836;28;45557;-64
2021/08/30 03:39:55;;;;;;;;;0.00;0.00;;;;;24.99;42.57;101180.00;5033948;28;45511;-64
2021/08/30 03:42:23;;;;;;;;;0.00;0.00;;;;;24.99;42.92;101177.28;5034176;28;45489;-64
2021/08/30 03:44:50;;;;;;;;;0.00;0.00;;;;;24.99;42.72;101177.28;5033753;28;46181;-64
2021/08/30 03:47:16;;;;;;;;;0.00;0.00;;;;;24.99;42.61;101178.19;5033832;28;45407;-64
2021/08/30 03:49:43;;;;;;;;;0.00;0.00;;;;;24.99;42.57;101178.19;5032567;28;45442;-64
2021/08/30 03:52:09;;;;;;;;;0.00;0.00;;;;;24.99;42.82;101177.28;5034757;28;45423;-64
2021/08/30 03:54:34;;;;;;;;;0.00;0.00;;;;;25.00;42.63;101181.78;5032418;28;45515;-64
2021/08/30 03:57:00;;;;;;;;;0.00;0.00;;;;;24.97;42.36;101173.75;5033889;28;45433;-64
2021/08/30 03:59:33;;;;;;;;;0.00;0.00;;;;;24.99;42.65;101174.56;5033861;28;45441;-64
2021/08/30 04:02:00;;;;;;;;;0.00;0.00;;;;;24.99;43.00;101180.00;5033835;28;45495;-64
2021/08/30 04:04:26;;;;;;;;;0.00;0.00;;;;;24.99;42.58;101172.72;5033763;28;46316;-64
2021/08/30 04:06:55;;;;;;;;;0.00;0.00;;;;;24.99;42.41;101169.13;5032419;28;45512;-64
2021/08/30 04:09:21;;;;;;;;;0.00;0.00;;;;;24.99;42.57;101171.84;5033864;28;45435;-63
2021/08/30 04:11:48;;;;;;;;;0.00;0.00;;;;;25.00;42.82;101170.88;5033873;28;45417;-63
2021/08/30 04:14:15;;;;;;;;;0.00;0.00;;;;;24.99;42.72;101163.69;5033566;28;45997;-64
2021/08/30 04:16:41;;;;;;;;;0.00;0.00;;;;;24.99;42.83;101172.72;5033529;28;45472;-64
2021/08/30 04:19:07;;;;;;;;;0.00;0.00;;;;;25.00;42.63;101171.78;5033820;28;45453;-64
2021/08/30 04:21:34;;;;;;;;;0.00;0.00;;;;;25.01;42.81;101169.97;5033576;28;45881;-64
2021/08/30 04:23:59;;;;;;;;;0.00;0.00;;;;;25.00;42.86;101173.63;5033243;28;46505;-64
2021/08/30 04:26:25;;;;;;;;;0.00;0.00;;;;;25.01;42.50;101170.84;5033384;28;45510;-64
2021/08/30 04:28:50;;;;;;;;;0.00;0.00;;;;;25.02;42.76;101174.44;5036895;28;45461;-64
2021/08/30 04:31:15;;;;;;;;;0.00;0.00;;;;;25.00;42.71;101171.78;5037417;28;45718;-64
2021/08/30 04:33:41;;;;;;;;;0.00;0.00;;;;;25.00;42.86;101179.06;5036612;28;45405;-64
2021/08/30 04:36:06;;;;;;;;;0.00;0.00;;;;;25.00;42.53;101173.63;5035538;28;45440;-64
2021/08/30 04:38:33;;;;;;;;;0.00;0.00;;;;;24.99;42.46;101171.84;5036927;28;45500;-64
2021/08/30 04:40:59;;;;;;;;;0.00;0.00;;;;;25.00;42.77;101176.34;5037217;28;45480;-64
2021/08/30 04:43:24;;;;;;;;;0.00;0.00;;;;;24.99;42.69;101178.19;5035081;28;47010;-64
2021/08/30 04:45:51;;;;;;;;;0.00;0.00;;;;;25.00;42.95;101179.06;5037136;28;45421;-64
2021/08/30 04:48:16;;;;;;;;;0.00;0.00;;;;;24.94;42.73;101174.72;5036938;28;45508;-64
2021/08/30 04:50:42;;;;;;;;;0.00;0.00;;;;;24.98;42.56;101176.38;5037018;28;44861;-65
2021/08/30 04:53:07;;;;;;;;;0.00;0.00;;;;;24.98;42.69;101187.28;5036714;28;45904;-65
2021/08/30 04:55:32;;;;;;;;;0.00;0.00;;;;;24.97;42.70;101180.06;5036346;28;45456;-65
2021/08/30 04:58:01;;;;;;;;;0.00;0.00;;;;;24.97;42.64;101185.50;5036726;28;45539;-65
2021/08/30 05:00:26;;;;;;;;;0.00;0.00;;;;;24.98;42.67;101191.84;5035250;28;45414;-65
2021/08/30 05:02:52;;;;;;;;;0.00;0.00;;;;;24.98;42.68;101190.00;5035889;28;45364;-65
2021/08/30 05:05:17;;;;;;;;;0.00;0.00;;;;;24.98;42.63;101187.28;5034946;28;45394;-65
2021/08/30 05:07:42;;;;;;;;;0.00;0.00;;;;;24.97;42.66;101190.06;5036671;28;45640;-65
2021/08/30 05:10:09;;;;;;;;;0.00;0.00;;;;;24.99;42.88;101191.78;5036326;28;45394;-65
2021/08/30 05:12:35;;;;;;;;;0.00;0.00;;;;;24.99;42.56;101190.91;5035788;28;46133;-65
2021/08/30 05:15:01;;;;;;;;;0.00;0.00;;;;;24.97;42.45;101192.78;5036381;28;45482;-63
2021/08/30 05:17:26;;;;;;;;;0.00;0.00;;;;;25.00;42.81;101196.25;5035516;28;45500;-64
2021/08/30 05:19:52;;;;;;;;;0.00;0.00;;;;;25.00;42.61;101188.09;5035191;28;45677;-63
2021/08/30 05:22:18;;;;;;;;;0.00;0.00;;;;;24.98;42.48;101183.66;5036174;28;46527;-63
2021/08/30 05:24:44;;;;;;;;;0.00;0.00;;;;;25.00;42.74;101196.25;5036098;28;45639;-63
2021/08/30 05:27:09;;;;;;;;;0.00;0.00;;;;;24.99;42.77;101199.94;5036351;28;45407;-63
2021/08/30 05:29:35;;;;;;;;;0.00;0.00;;;;;25.00;42.64;101195.38;5036178;28;45350;-63
2021/08/30 05:32:00;;;;;;;;;0.00;0.00;;;;;25.00;42.64;101195.38;5036022;28;46359;-64
2021/08/30 05:34:25;;;;;;;;;0.00;0.00;;;;;25.00;42.46;101198.09;5034689;28;44825;-64
2021/08/30 05:36:57;;;;;;;;;0.00;0.00;;;;;24.99;42.39;101196.34;5034927;28;45383;-64
2021/08/30 05:39:22;;;;;;;;;0.00;0.00;;;;;24.98;42.62;101198.16;5033648;28;45573;-64
2021/08/30 05:41:48;;;;;;;;;0.00;0.00;;;;;24.97;42.47;101196.41;5035605;28;45900;-64
2021/08/30 05:44:14;;;;;;;;;0.00;0.00;;;;;24.98;42.51;101202.72;5036081;28;45436;-64
2021/08/30 05:46:39;;;;;;;;;0.00;0.00;;;;;24.97;42.50;101199.13;5035785;28;45343;-65
2021/08/30 05:49:05;;;;;;;;;0.00;0.00;;;;;24.97;42.62;101203.69;5034371;28;45352;-63
2021/08/30 05:51:30;;;;;;;;;0.00;0.00;;;;;24.98;42.76;101202.72;5035600;28;45701;-65
2021/08/30 05:53:56;;;;;;;;;0.00;0.00;;;;;24.96;42.89;101194.59;5035588;28;45368;-64
2021/08/30 05:56:23;;;;;;;;;0.00;0.00;;;;;24.98;42.67;101202.72;5035941;28;45426;-64
2021/08/30 05:58:48;;;;;;;;;0.00;0.00;;;;;24.97;42.39;101204.56;5036176;28;45967;-64
2021/08/30 06:01:14;;;;;;;;;0.00;0.00;;;;;24.99;42.41;101207.22;5035502;28;46257;-64
2021/08/30 06:03:39;;;;;;;;;0.00;0.00;;;;;24.96;42.74;101202.75;5035446;28;45519;-65
2021/08/30 06:06:04;;;;;;;;;0.00;0.00;;;;;24.98;42.57;101210.88;5035865;28;45451;-65
2021/08/30 06:08:31;;;;;;;;;0.00;0.00;;;;;24.97;42.73;101207.28;5035471;28;45544;-64
2021/08/30 06:10:57;;;;;;;;;0.00;0.00;;;;;24.97;42.96;101215.44;5035847;28;45279;-64
2021/08/30 06:13:24;;;;;;;;;0.00;0.00;;;;;24.96;42.62;101219.09;5035368;28;45422;-64
2021/08/30 06:15:50;;;;;;;;;0.00;0.00;;;;;24.97;42.77;101217.28;5033750;28;45431;-64
2021/08/30 06:18:16;;;;;;;;;0.00;0.00;;;;;24.94;42.87;101219.19;5035086;28;45410;-67
2021/08/30 06:20:41;;;;;;;;;14.00;14.00;;;;;24.82;44.36;101208.72;5034217;28;46551;-63
2021/08/30 06:23:07;;;;;;;;;19.33;18.33;;;;;24.61;45.17;101228.59;5035162;28;45532;-63
2021/08/30 06:25:32;;;;;;;;;19.67;19.67;;;;;24.35;46.31;101225.81;5033381;28;45407;-63
2021/08/30 06:27:58;;;;;;;;;20.33;18.00;;;;;24.10;45.96;101225.81;5035239;28;45445;-64
2021/08/30 06:30:23;;;;;;;;;15.00;15.00;;;;;23.93;46.65;101231.78;5034677;28;45930;-64
2021/08/30 06:32:51;;;;;;;;;21.00;20.33;;;;;23.79;48.00;101219.63;5034789;28;45571;-64
2021/08/30 06:35:16;;;;;;;;;18.67;18.67;;;;;23.62;48.68;101231.03;5033456;28;45872;-64
2021/08/30 06:37:42;;;;;;;;;22.67;22.33;;;;;23.46;48.72;101238.78;5034123;28;45448;-65
2021/08/30 06:40:09;;;;;;;;;26.00;21.33;;;;;23.36;48.79;101241.75;5034275;28;46087;-68
2021/08/30 06:42:35;;;;;;;;;24.00;24.00;;;;;23.31;48.94;101238.31;5034151;28;45366;-66
2021/08/30 06:45:01;;;;;;;;;25.67;24.33;;;;;23.25;49.05;101241.22;5033946;28;45467;-66
2021/08/30 06:47:27;;;;;;;;;21.67;20.67;;;;;23.20;49.78;101247.72;5033888;28;45336;-66
2021/08/30 06:49:52;;;;;;;;;21.33;21.33;;;;;23.13;49.58;101239.75;5033529;28;45518;-67
2021/08/30 06:52:17;;;;;;;;;22.33;22.33;;;;;23.02;50.19;101232.88;5034601;28;45412;-66
2021/08/30 06:54:43;;;;;;;;;26.00;24.33;;;;;22.93;50.56;101234.91;5035366;28;45302;-66
2021/08/30 06:57:08;;;;;;;;;22.67;22.67;;;;;22.84;50.56;101229.72;5033426;28;45695;-65
2021/08/30 06:59:34;;;;;;;;;21.33;21.33;;;;;22.82;50.88;101238.84;5034300;28;45551;-66
2021/08/30 07:01:59;;;;;;;;;21.33;20.00;;;;;22.78;50.68;101238.03;5034279;28;45523;-66
2021/08/30 07:04:24;;;;;;;;;20.33;19.00;;;;;22.77;51.60;101241.69;5034696;28;45435;-66
2021/08/30 07:06:50;;;;;;;;;21.00;21.00;;;;;22.73;51.33;101234.59;5034192;28;45385;-66
2021/08/30 07:09:23;;;;;;;;;23.00;19.33;;;;;22.70;51.35;101237.38;5034177;28;45554;-67
2021/08/30 07:11:50;;;;;;;;;19.33;18.67;;;;;22.63;51.30;101241.22;5033836;28;45494;-67
2021/08/30 07:14:15;;;;;;;;;20.67;19.00;;;;;22.67;51.65;101251.03;5032562;28;45488;-67
2021/08/30 07:16:40;;;;;;;;;23.67;22.33;;;;;22.62;51.86;101244.84;5034405;28;45527;-67
2021/08/30 07:19:06;;;;;;;;;21.33;21.33;;;;;22.55;51.86;101247.72;5033799;28;45382;-66
2021/08/30 07:21:33;;;;;;;;;23.00;21.33;;;;;22.50;52.14;101260.53;5033184;28;45564;-67
2021/08/30 07:23:59;;;;;;;;;18.33;18.33;;;;;22.45;51.88;101258.88;5032146;28;45418;-67
2021/08/30 07:26:24;;;;;;;;;25.33;23.33;;;;;22.34;52.06;101254.63;5049085;28;45527;-66
2021/08/30 07:28:50;;;;;;;;;21.33;21.00;;;;;22.41;52.08;101260.75;5033911;28;45420;-65
2021/08/30 07:31:22;;;;;;;;;18.33;17.33;;;;;22.45;52.42;101259.75;5034251;28;45081;-65
2021/08/30 07:33:48;;;;;;;;;15.33;14.33;;;;;22.50;52.07;101263.25;5033742;28;44955;-65
2021/08/30 07:36:21;;;;;;;;;19.33;18.67;;;;;22.57;52.13;101262.13;5050368;28;45509;-65
2021/08/30 07:38:46;;;;;;;;;18.00;16.67;;;;;22.59;52.18;101269.34;5054295;28;45782;-65
2021/08/30 07:41:11;;;;;;;;;15.00;15.00;;;;;22.62;51.62;101271.94;5035828;28;45850;-66
2021/08/30 07:43:37;;;;;;;;;16.00;15.00;;;;;22.65;51.47;101274.59;5053671;28;45524;-66
2021/08/30 07:46:03;;;;;;;;;16.00;15.00;;;;;22.66;51.63;101269.13;5054023;28;45395;-65
2021/08/30 07:48:29;;;;;;;;;14.00;13.00;;;;;22.73;51.59;101273.44;5053577;28;45401;-66
2021/08/30 07:50:55;;;;;;;;;13.00;12.00;;;;;22.77;51.42;101272.41;5054159;28;44809;-66
2021/08/30 07:53:26;;;;;;;;;15.67;15.33;;;;;22.83;51.38;101276.78;5047522;28;45390;-66
2021/08/30 07:55:51;;;;;;;;;12.67;12.00;;;;;22.86;51.08;101276.69;5053679;28;45454;-66
2021/08/30 07:58:18;;;;;;;;;16.67;15.00;;;;;22.92;51.08;101276.50;5051111;28;46181;-66
2021/08/30 08:00:44;;;;;;;;;15.00;12.67;;;;;22.94;51.46;101273.75;5034906;28;45444;-66
2021/08/30 08:03:09;;;;;;;;;10.00;10.00;;;;;22.99;51.22;101271.81;5052761;28;45408;-66
2021/08/30 08:05:35;;;;;;;;;13.00;12.00;;;;;23.00;50.82;101279.00;5054008;28;45411;-66
2021/08/30 08:08:04;;;;;;;;;12.33;10.00;;;;;23.04;51.18;101277.13;5053521;28;45431;-66
2021/08/30 08:10:29;;;;;;;;;11.67;11.67;;;;;23.09;50.90;101277.91;5053160;28;44844;-66
2021/08/30 08:12:54;;;;;;;;;11.00;11.00;;;;;23.12;50.71;101283.22;5033239;28;45775;-66
2021/08/30 08:15:20;;;;;;;;;14.00;11.33;;;;;23.16;50.34;101290.31;5033659;28;45430;-66
2021/08/30 08:17:45;;;;;;;;;12.67;12.33;;;;;23.21;50.73;101285.66;5032811;28;45564;-66
2021/08/30 08:20:11;;;;;;;;;12.67;12.67;;;;;23.21;50.58;101295.63;5033220;28;45744;-66
2021/08/30 08:22:37;;;;;;;;;10.33;10.33;;;;;23.27;50.32;101296.34;5033291;28;45569;-66
2021/08/30 08:25:05;;;;;;;;;12.00;12.00;;;;;23.28;50.23;101291.78;5033328;28;45678;-66
2021/08/30 08:27:31;;;;;;;;;10.67;10.00;;;;;23.29;49.92;101291.75;5014868;28;45489;-67
2021/08/30 08:29:57;;;;;;;;;13.00;12.00;;;;;23.30;49.83;101288.09;5032924;28;45377;-66
2021/08/30 08:32:24;;;;;;;;;10.00;10.00;;;;;23.35;49.78;101297.00;5033208;28;45378;-66
2021/08/30 08:34:56;;;;;;;;;13.67;13.00;;;;;23.36;49.59;101303.31;5032886;28;45470;-66
2021/08/30 08:37:21;;;;;;;;;10.00;10.00;;;;;23.39;49.63;101302.31;5033150;28;45473;-66
2021/08/30 08:39:47;;;;;;;;;10.00;10.00;;;;;23.42;49.83;101302.25;5032903;28;45490;-66
2021/08/30 08:42:12;;;;;;;;;12.00;10.67;;;;;23.44;49.75;101305.78;5032864;28;45437;-66
2021/08/30 08:44:39;;;;;;;;;11.00;11.00;;;;;23.48;49.86;101308.34;5032874;28;45667;-66
2021/08/30 08:47:07;;;;;;;;;11.33;10.00;;;;;23.51;49.48;101308.28;5032789;28;46355;-66
2021/08/30 08:49:32;;;;;;;;;10.67;10.33;;;;;23.56;49.04;101308.13;5052976;28;45471;-66
2021/08/30 08:51:58;;;;;;;;;12.67;11.67;;;;;23.57;49.49;101307.19;5053021;28;45442;-66
2021/08/30 08:54:24;;;;;;;;;9.67;9.67;;;;;23.60;49.43;101303.50;5035313;28;45478;-66
2021/08/30 08:56:52;;;;;;;;;10.67;9.00;;;;;23.64;49.25;101316.03;5052519;28;45425;-66
2021/08/30 08:59:17;;;;;;;;;11.00;11.00;;;;;23.66;48.85;101306.91;5053031;28;45486;-69
2021/08/30 09:01:42;;;;;;;;;11.33;11.33;;;;;23.69;48.76;101303.19;5052889;28;45395;-65
2021/08/30 09:04:08;;;;;;;;;11.67;11.67;;;;;23.70;49.04;101305.00;5052812;28;45380;-65
2021/08/30 09:06:42;;;;;;;;;13.33;10.67;;;;;23.72;48.57;101306.72;5052500;28;45639;-66
2021/08/30 09:09:10;;;;;;;;;10.33;10.33;;;;;23.74;48.72;101303.94;5052781;28;45580;-66
2021/08/30 09:11:36;;;;;;;;;12.00;10.67;;;;;23.74;48.95;101310.25;5052723;28;45422;-66
2021/08/30 09:14:02;;;;;;;;;10.33;9.00;;;;;23.75;48.33;101308.44;5055335;28;45737;-65
2021/08/30 09:16:27;;;;;;;;;9.00;9.00;;;;;23.71;48.80;101299.50;5055751;28;45510;-66
2021/08/30 09:19:04;;;;;;;;;10.33;10.33;;;;;23.78;48.69;101312.94;5053900;28;45486;-66
2021/08/30 09:21:31;;;;;;;;;9.67;9.00;;;;;23.79;48.30;101306.53;5038058;28;45391;-65
2021/08/30 09:24:07;;;;;;;;;11.33;10.00;;;;;23.80;48.58;101311.94;5035247;28;44986;-66
2021/08/30 09:26:43;;;;;;;;;13.67;12.67;;;;;23.83;47.99;101316.38;5035724;28;45765;-64
2021/08/30 09:29:14;;;;;;;;;11.00;11.00;;;;;23.83;48.47;101324.53;5048649;28;45540;-66
2021/08/30 09:31:40;;;;;;;;;12.00;11.33;;;;;23.82;48.07;101317.34;5055886;28;45405;-64
2021/08/30 09:34:10;;;;;;;;;12.00;10.33;;;;;23.84;48.52;101315.44;5036856;28;45511;-65
2021/08/30 09:36:43;;;;;;;;;9.33;9.33;;;;;23.88;48.39;101322.56;5054299;28;46594;-65
2021/08/30 09:39:09;;;;;;;;;8.67;8.67;;;;;23.89;48.15;101317.06;5053983;28;45413;-65
2021/08/30 09:41:36;;;;;;;;;13.00;9.00;;;;;23.91;48.23;101311.59;5042351;28;45446;-65
2021/08/30 09:44:03;;;;;;;;;7.67;7.67;;;;;23.94;47.93;101314.22;5036867;28;45461;-65
2021/08/30 09:46:31;;;;;;;;;9.33;9.33;;;;;23.98;48.27;101313.19;5054890;28;45500;-65
2021/08/30 09:49:15;;;;;;;;;8.00;8.00;;;;;24.05;47.94;101308.41;5037249;28;45469;-63
2021/08/30 09:51:40;;;;;;;;;7.00;7.00;;;;;24.12;48.17;101310.88;5054822;28;45540;-64
2021/08/30 09:54:07;;;;;;;;;5.00;5.00;;;;;24.20;48.17;101310.63;5052891;28;45415;-64
2021/08/30 09:56:37;;;;;;;;;6.33;6.33;;;;;24.27;47.82;101311.31;5055187;28;45430;-64
2021/08/30 09:59:08;;;;;;;;;3.00;3.00;;;;;24.34;48.04;101307.47;5036449;28;46003;-65
2021/08/30 10:01:39;;;;;;;;;6.33;6.33;;;;;24.40;47.51;101307.25;5055044;28;45087;-65
2021/08/30 10:04:06;;;;;;;;;6.33;6.33;;;;;24.46;47.57;101312.47;5055700;28;45376;-64
2021/08/30 10:06:35;;;;;;;;;3.67;3.67;;;;;24.52;47.67;101300.50;5054979;28;45405;-65
2021/08/30 10:09:04;;;;;;;;;4.33;4.33;;;;;24.59;47.03;101298.47;5055099;28;45532;-64
2021/08/30 10:11:29;;;;;;;;;4.00;4.00;;;;;24.62;47.15;101298.34;5055248;28;45401;-65
2021/08/30 10:13:56;;;;;;;;;2.00;2.00;;;;;24.69;47.30;101294.47;5055152;28;45449;-64
2021/08/30 10:16:22;;;;;;;;;4.00;4.00;;;;;24.74;47.05;101297.91;5055028;28;45502;-64
2021/08/30 10:18:49;;;;;;;;;4.50;4.50;;;;;24.78;47.05;101295.97;5055074;28;45396;-64
2021/08/30 10:21:16;;;;;;;;;4.00;4.00;;;;;24.82;46.76;101293.06;5054686;28;45538;-66
2021/08/30 10:23:45;;;;;;;;;4.33;4.33;;;;;24.85;46.61;101284.81;5054759;28;45581;-64
2021/08/30 10:26:12;;;;;;;;;4.00;3.00;;;;;24.91;46.53;101300.91;5054709;28;45353;-65
2021/08/30 10:28:46;;;;;;;;;3.00;3.00;;;;;24.92;46.66;101291.78;5054524;28;45706;-65
2021/08/30 10:31:20;;;;;;;;;2.33;2.33;;;;;25.00;46.44;101285.19;5055404;28;45437;-65
2021/08/30 10:33:51;;;;;;;;;3.67;2.33;;;;;25.04;46.63;101295.00;5055423;28;45405;-65
2021/08/30 10:36:19;;;;;;;;;4.33;3.33;;;;;25.08;46.24;101293.94;5046787;28;46006;-65
2021/08/30 10:39:00;;;;;;;;;1.00;1.00;;;;;25.11;46.42;101291.13;5034314;28;45692;-65
2021/08/30 10:41:36;;;;;;;;;3.00;1.33;;;;;25.14;46.14;101285.53;5033079;28;45503;-65
2021/08/30 10:44:06;;;;;;;;;2.00;1.33;;;;;25.18;45.99;101287.19;5034342;28;45417;-65
2021/08/30 10:46:43;;;;;;;;;1.00;1.00;;;;;25.19;46.07;101279.91;5034325;28;45454;-65
2021/08/30 10:49:19;;;;;;;;;1.67;1.67;;;;;25.25;45.90;101291.50;5033901;28;45469;-65
2021/08/30 10:51:46;;;;;;;;;2.67;2.67;;;;;25.28;45.90;101294.09;5034302;28;45472;-65
2021/08/30 10:54:16;;;;;;;;;2.00;2.00;;;;;25.31;45.80;101288.56;5050125;28;45510;-65
2021/08/30 10:56:42;;;;;;;;;1.00;1.00;;;;;25.35;45.65;101292.94;5054215;28;46044;-64
2021/08/30 10:59:09;;;;;;;;;1.00;1.00;;;;;25.38;45.98;101291.03;5054022;28;45480;-64
2021/08/30 11:01:38;;;;;;;;;1.33;1.00;;;;;25.41;45.43;101290.91;5054333;28;45437;-65
2021/08/30 11:04:06;;;;;;;;;1.00;1.00;;;;;25.42;45.28;101288.13;5054819;28;45429;-65
2021/08/30 11:06:32;;;;;;;;;2.00;2.00;;;;;25.46;45.54;101292.50;5055290;28;45425;-65
2021/08/30 11:08:58;;;;;;;;;3.33;3.33;;;;;25.48;45.71;101292.44;5057834;28;45371;-66
2021/08/30 11:11:27;;;;;;;;;2.00;2.00;;;;;25.52;45.69;101294.09;5055332;28;45448;-66
2021/08/30 11:13:55;;;;;;;;;3.00;3.00;;;;;25.54;45.71;101301.25;5057731;28;44907;-65
2021/08/30 11:16:23;;;;;;;;;1.00;1.00;;;;;25.59;45.40;101300.19;5056191;28;46499;-65
2021/08/30 11:19:01;;;;;;;;;2.67;2.00;;;;;25.62;45.42;101302.81;5053908;28;45434;-70
2021/08/30 11:21:40;;;;;;;;;3.00;3.00;;;;;25.65;45.31;101298.13;5056225;28;45783;-69
2021/08/30 11:24:08;;;;;;;;;2.67;1.67;;;;;25.68;45.43;101300.72;5037215;28;45557;-71
2021/08/30 11:26:37;;;;;;;;;1.67;1.00;;;;;25.71;45.38;101303.31;5056753;28;46149;-70
2021/08/30 11:29:07;;;;;;;;;1.00;1.00;;;;;25.75;45.86;101309.50;5054008;28;45401;-69